Time;durP1;ratioP1;P1;durP2;ratioP2;P2;SDS_P1;SDS_P2;PMS_P1;PMS_P2;Temp;Humidity;BMP_temperature;BMP_pressure;BME280_temperature;BME280_humidity;BME280_pressure;Samples;Min_cycle;Max_cycle;Signal;HPM_P1;HPM_P2
2021/10/31 00:00:07;;;;;;;25.58;18.17;;;;;;;10.91;100.00;100131.09;5002883;28;20046;-85
2021/10/31 00:02:33;;;;;;;25.00;15.35;;;;;;;10.88;100.00;100138.69;4989355;28;20038;-87
2021/10/31 00:04:58;;;;;;;26.08;16.58;;;;;;;10.89;100.00;100135.78;5001081;28;20433;-82
2021/10/31 00:07:24;;;;;;;24.27;16.52;;;;;;;10.88;100.00;100134.13;5010648;28;20161;-83
2021/10/31 00:09:49;;;;;;;23.35;16.00;;;;;;;10.88;100.00;100146.72;4972794;28;20046;-88
2021/10/31 00:12:15;;;;;;;30.08;18.60;;;;;;;10.87;100.00;100137.81;5004806;28;20455;-82
2021/10/31 00:14:40;;;;;;;27.05;17.70;;;;;;;10.86;100.00;100141.53;4986965;28;20042;-88
2021/10/31 00:17:05;;;;;;;26.20;17.05;;;;;;;10.83;100.00;100142.72;5013279;28;20038;-86
2021/10/31 00:19:31;;;;;;;25.92;17.92;;;;;;;10.83;100.00;100148.09;4995209;28;20042;-86
2021/10/31 00:21:57;;;;;;;26.85;16.27;;;;;;;10.81;100.00;100149.28;4963358;28;20300;-88
2021/10/31 00:24:22;;;;;;;27.23;17.75;;;;;;;10.80;100.00;100153.00;4995338;28;20042;-88
2021/10/31 00:26:48;;;;;;;28.45;18.40;;;;;;;10.84;100.00;100148.91;4983826;28;20050;-84
2021/10/31 00:29:15;;;;;;;27.67;17.00;;;;;;;10.79;100.00;100154.03;5013491;28;20172;-85
2021/10/31 00:31:40;;;;;;;26.42;17.45;;;;;;;10.79;100.00;100156.69;5006155;28;20037;-81
2021/10/31 00:34:06;;;;;;;28.98;18.30;;;;;;;10.77;100.00;100156.88;5009946;28;20052;-82
2021/10/31 00:36:31;;;;;;;28.15;20.45;;;;;;;10.78;100.00;100150.47;4995188;28;20486;-85
2021/10/31 00:38:57;;;;;;;32.45;19.50;;;;;;;10.76;100.00;100147.16;5012305;28;20046;-83
2021/10/31 00:41:22;;;;;;;27.50;20.85;;;;;;;10.74;100.00;100146.50;4990751;28;20038;-82
2021/10/31 00:43:48;;;;;;;30.98;19.40;;;;;;;10.69;100.00;100146.19;4975752;28;20042;-89
2021/10/31 00:46:13;;;;;;;30.25;19.95;;;;;;;10.66;100.00;100151.09;4990871;28;20080;-84
2021/10/31 00:48:39;;;;;;;28.70;18.58;;;;;;;10.64;100.00;100155.81;5007076;28;20061;-87
2021/10/31 00:51:06;;;;;;;27.33;18.05;;;;;;;10.59;100.00;100167.91;4990866;28;22642;-88
2021/10/31 00:53:32;;;;;;;31.45;19.77;;;;;;;10.62;100.00;100156.00;5006535;28;20041;-85
2021/10/31 00:56:00;;;;;;;28.52;19.90;;;;;;;10.61;100.00;100165.88;4992317;28;20530;-81
2021/10/31 00:58:26;;;;;;;28.55;18.65;;;;;;;10.57;100.00;100169.09;5010399;28;20029;-81
2021/10/31 01:00:52;;;;;;;30.02;19.63;;;;;;;10.56;100.00;100170.13;5006628;28;20399;-86
2021/10/31 01:03:18;;;;;;;32.55;18.83;;;;;;;10.57;100.00;100169.94;5006771;28;20033;-88
2021/10/31 01:05:50;;;;;;;30.52;20.70;;;;;;;10.60;100.00;100166.06;4989296;28;20445;-85
2021/10/31 01:08:48;;;;;;;32.85;21.13;;;;;;;10.54;100.00;100159.56;5003578;28;20042;-82
2021/10/31 01:11:23;;;;;;;30.55;20.23;;;;;;;10.50;100.00;100163.63;5005252;28;20038;-82
2021/10/31 01:14:21;;;;;;;32.08;21.58;;;;;;;10.52;100.00;100163.44;5007548;28;20136;-89
2021/10/31 01:16:55;;;;;;;36.55;20.83;;;;;;;10.47;100.00;100158.63;4994414;28;20037;-86
2021/10/31 01:19:34;;;;;;;35.63;21.48;;;;;;;10.47;100.00;100158.63;5008093;28;20030;-84
2021/10/31 01:22:26;;;;;;;34.30;23.63;;;;;;;10.47;100.00;100157.78;4991268;28;20038;-86
2021/10/31 01:25:06;;;;;;;35.60;22.08;;;;;;;10.43;100.00;100169.88;4987571;28;20045;-87
2021/10/31 01:28:10;;;;;;;35.42;22.23;;;;;;;10.42;100.00;100170.91;4986655;28;20479;-84
2021/10/31 01:30:47;;;;;;;36.75;23.65;;;;;;;10.40;100.00;100173.75;4986685;28;20097;-91
2021/10/31 01:33:33;;;;;;;32.67;20.20;;;;;;;10.37;100.00;100174.13;4999805;28;20407;-81
2021/10/31 01:36:35;;;;;;;34.47;19.67;;;;;;;10.35;100.00;100173.44;4986393;28;20041;-85
2021/10/31 01:39:19;;;;;;;29.77;19.30;;;;;;;10.31;100.00;100175.66;4979440;28;20129;-87
2021/10/31 01:42:01;;;;;;;37.33;20.60;;;;;;;10.27;100.00;100174.34;5003491;28;20069;-86
2021/10/31 01:44:51;;;;;;;34.92;20.58;;;;;;;10.24;100.00;100168.47;4997075;28;20050;-86
2021/10/31 01:47:20;;;;;;;30.40;19.67;;;;;;;10.23;100.00;100169.47;5003562;28;20041;-90
2021/10/31 01:49:59;;;;;;;34.75;20.75;;;;;;;10.23;100.00;100180.22;5004123;28;20038;-85
2021/10/31 01:52:37;;;;;;;33.90;19.10;;;;;;;10.19;100.00;100181.59;4984927;28;20054;-88
2021/10/31 01:55:10;;;;;;;32.63;19.95;;;;;;;10.17;100.00;100179.91;5002844;28;20471;-86
2021/10/31 01:57:43;;;;;;;32.97;20.77;;;;;;;10.17;100.00;100182.56;4990464;28;20076;-87
2021/10/31 02:00:13;;;;;;;31.70;21.80;;;;;;;10.16;100.00;100198.84;5003368;28;20100;-81
2021/10/31 02:02:43;;;;;;;37.42;20.08;;;;;;;10.11;100.00;100199.38;4985966;28;20125;-83
2021/10/31 02:05:12;;;;;;;33.92;19.25;;;;;;;10.08;100.00;100202.41;4998546;28;22305;-81
2021/10/31 02:07:44;;;;;;;37.08;21.10;;;;;;;10.10;100.00;100199.56;4999705;28;20189;-83
2021/10/31 02:10:13;;;;;;;37.17;22.10;;;;;;;10.09;100.00;100206.75;5003344;28;20387;-88
2021/10/31 02:12:41;;;;;;;35.78;20.38;;;;;;;10.07;100.00;100206.09;4990110;28;20037;-86
2021/10/31 02:15:11;;;;;;;35.72;20.08;;;;;;;10.04;100.00;100205.59;4984241;28;20037;-83
2021/10/31 02:17:37;;;;;;;35.30;21.27;;;;;;;10.05;100.00;100201.94;5004514;28;20443;-86
2021/10/31 02:20:03;;;;;;;32.80;18.98;;;;;;;10.03;100.00;100199.41;4986577;28;20056;-84
2021/10/31 02:22:31;;;;;;;35.10;20.67;;;;;;;10.03;100.00;100204.75;4995940;28;20042;-85
2021/10/31 02:25:02;;;;;;;31.23;19.17;;;;;;;10.01;100.00;100206.81;5000126;28;20050;-84
2021/10/31 02:27:32;;;;;;;34.03;18.83;;;;;;;9.97;100.00;100205.47;4990155;28;20072;-88
2021/10/31 02:30:00;;;;;;;33.80;19.38;;;;;;;9.97;100.00;100210.00;5006212;28;20047;-87
2021/10/31 02:32:31;;;;;;;34.78;17.90;;;;;;;9.95;100.00;100210.16;4983800;28;20037;-87
2021/10/31 02:35:00;;;;;;;31.73;19.58;;;;;;;9.93;100.00;100215.72;4985104;28;20031;-87
2021/10/31 02:37:29;;;;;;;37.28;20.38;;;;;;;9.91;100.00;100212.38;4989510;28;20125;-87
2021/10/31 02:39:55;;;;;;;34.22;21.05;;;;;;;9.86;100.00;100212.03;4972216;28;20083;-85
2021/10/31 02:42:22;;;;;;;37.70;19.85;;;;;;;9.87;100.00;100210.22;5009969;28;20046;-85
2021/10/31 02:44:47;;;;;;;34.47;20.33;;;;;;;9.88;100.00;100214.56;4974661;28;20041;-83
2021/10/31 02:47:25;;;;;;;34.20;20.55;;;;;;;9.81;100.00;100213.56;4973377;28;20052;-81
2021/10/31 02:49:52;;;;;;;32.75;20.33;;;;;;;9.78;100.00;100214.78;5003125;28;20041;-89
2021/10/31 02:52:32;;;;;;;38.97;20.50;;;;;;;9.75;100.00;100223.13;5004669;28;20046;-82
2021/10/31 02:55:22;;;;;;;36.13;19.42;;;;;;;9.73;100.00;100219.81;5012888;28;20038;-82
2021/10/31 02:57:59;;;;;;;38.90;22.25;;;;;;;9.71;100.00;100224.50;5004338;28;20046;-83
2021/10/31 03:00:29;;;;;;;43.72;25.90;;;;;;;9.73;100.00;100224.34;4965566;28;20045;-84
2021/10/31 03:02:56;;;;;;;;;;;;;;;9.71;100.00;100219.97;4989066;28;20497;-86
2021/10/31 03:05:21;;;;;;;38.60;23.42;;;;;;;9.61;100.00;100222.03;5003792;28;20046;-88
2021/10/31 03:07:48;;;;;;;45.60;26.13;;;;;;;9.62;100.00;100217.50;4988146;28;20125;-84
2021/10/31 03:10:26;;;;;;;44.67;26.17;;;;;;;9.62;100.00;100214.81;4989342;28;20478;-85
2021/10/31 03:12:51;;;;;;;44.58;26.00;;;;;;;9.64;100.00;100216.31;5003133;28;20040;-83
2021/10/31 03:15:20;;;;;;;45.28;26.65;;;;;;;9.64;100.00;100219.00;4985103;28;20375;-80
2021/10/31 03:17:46;;;;;;;42.95;25.50;;;;;;;9.65;100.00;100217.97;5005397;28;20044;-84
2021/10/31 03:20:11;;;;;;;43.42;26.75;;;;;;;9.65;100.00;100212.63;5008835;28;20038;-88
2021/10/31 03:22:38;;;;;;;44.58;24.77;;;;;;;9.64;100.00;100219.00;5008321;28;20054;-82
2021/10/31 03:25:05;;;;;;;40.63;25.95;;;;;;;9.67;100.00;100215.97;4991789;28;20042;-83
2021/10/31 03:27:30;;;;;;;43.10;25.13;;;;;;;9.68;100.00;100212.28;4990561;28;20087;-83
2021/10/31 03:29:58;;;;;;;39.35;22.98;;;;;;;9.67;100.00;100209.78;4991605;28;20513;-85
2021/10/31 03:32:28;;;;;;;39.08;23.83;;;;;;;9.69;100.00;100213.09;4993328;28;20064;-85
2021/10/31 03:34:54;;;;;;;39.22;24.30;;;;;;;9.70;100.00;100199.56;4977199;28;20513;-84
2021/10/31 03:37:20;;;;;;;40.70;23.88;;;;;;;9.73;100.00;100205.59;5010722;28;20054;-82
2021/10/31 03:39:45;;;;;;;37.25;23.05;;;;;;;9.71;100.00;100206.56;5006469;28;20041;-83
2021/10/31 03:42:10;;;;;;;35.90;22.48;;;;;;;9.70;100.00;100204.09;5002514;28;20050;-84
2021/10/31 03:44:48;;;;;;;34.70;20.27;;;;;;;9.67;100.00;100207.94;5000247;28;20037;-82
2021/10/31 03:47:15;;;;;;;34.65;20.38;;;;;;;9.67;100.00;100204.44;4989096;28;20054;-82
2021/10/31 03:49:40;;;;;;;34.28;21.85;;;;;;;9.70;100.00;100217.47;5004571;28;20064;-82
2021/10/31 03:52:06;;;;;;;38.58;23.40;;;;;;;9.70;100.00;100210.28;4988842;28;20042;-84
2021/10/31 03:54:35;;;;;;;37.38;19.95;;;;;;;9.70;100.00;100218.31;5002193;28;20385;-84
2021/10/31 03:57:02;;;;;;;34.95;21.10;;;;;;;9.69;100.00;100213.09;4991048;28;20128;-84
2021/10/31 03:59:31;;;;;;;36.63;20.50;;;;;;;9.66;100.00;100216.97;4990619;28;20042;-85
2021/10/31 04:01:56;;;;;;;37.30;21.73;;;;;;;9.67;100.00;100217.81;5011455;28;20390;-81
2021/10/31 04:04:28;;;;;;;35.25;21.08;;;;;;;9.66;100.00;100222.31;5009220;28;20048;-86
2021/10/31 04:06:53;;;;;;;30.63;18.88;;;;;;;9.64;100.00;100223.53;5009349;28;20141;-85
2021/10/31 04:09:19;;;;;;;36.75;20.90;;;;;;;9.64;100.00;100226.22;4955776;28;20117;-82
2021/10/31 04:11:45;;;;;;;35.95;20.60;;;;;;;9.64;100.00;100223.53;4993049;28;20125;-81
2021/10/31 04:14:12;;;;;;;38.30;21.20;;;;;;;9.64;100.00;100220.84;4991116;28;20042;-85
2021/10/31 04:16:37;;;;;;;38.00;22.02;;;;;;;9.61;100.00;100232.75;4976534;28;20402;-85
2021/10/31 04:19:06;;;;;;;36.33;22.42;;;;;;;9.60;100.00;100225.69;5004777;28;20057;-84
2021/10/31 04:21:31;;;;;;;36.30;22.85;;;;;;;9.62;100.00;100226.38;4986556;28;20422;-89
2021/10/31 04:23:57;;;;;;;35.72;21.02;;;;;;;9.56;100.00;100224.38;4988167;28;20057;-82
2021/10/31 04:26:23;;;;;;;36.10;21.00;;;;;;;9.57;100.00;100226.03;4987348;28;20054;-83
2021/10/31 04:28:49;;;;;;;40.00;23.15;;;;;;;9.58;100.00;100227.72;4982810;28;20046;-86
2021/10/31 04:31:14;;;;;;;41.20;22.90;;;;;;;9.58;100.00;100217.03;4990656;28;20034;-85
2021/10/31 04:33:40;;;;;;;37.72;22.42;;;;;;;9.59;100.00;100213.31;5002961;28;20050;-83
2021/10/31 04:36:07;;;;;;;36.40;23.52;;;;;;;9.62;100.00;100212.97;4987116;28;20033;-88
2021/10/31 04:38:33;;;;;;;37.45;23.75;;;;;;;9.60;100.00;100219.50;5005425;28;20053;-86
2021/10/31 04:41:05;;;;;;;35.17;21.58;;;;;;;9.59;100.00;100209.81;4991865;28;20042;-83
2021/10/31 04:43:35;;;;;;;38.13;23.08;;;;;;;9.62;100.00;100206.78;4973688;28;20085;-84
2021/10/31 04:46:00;;;;;;;36.55;22.00;;;;;;;9.61;100.00;100197.91;4996622;28;20165;-85
2021/10/31 04:48:27;;;;;;;40.83;22.63;;;;;;;9.61;100.00;100203.28;4977022;28;20049;-83
2021/10/31 04:50:53;;;;;;;41.45;23.45;;;;;;;9.61;100.00;100203.28;5003104;28;20045;-83
2021/10/31 04:53:20;;;;;;;42.17;22.65;;;;;;;9.62;100.00;100202.25;5008132;28;20042;-86
2021/10/31 04:55:45;;;;;;;40.97;23.00;;;;;;;9.63;100.00;100203.91;4987739;28;20513;-83
2021/10/31 04:58:11;;;;;;;37.80;22.38;;;;;;;9.64;100.00;100205.59;4985234;28;20043;-86
2021/10/31 05:00:38;;;;;;;41.35;23.65;;;;;;;9.63;100.00;100195.06;4980834;28;20038;-86
2021/10/31 05:03:06;;;;;;;38.45;23.30;;;;;;;9.63;100.00;100181.66;4986719;28;20038;-84
2021/10/31 05:05:32;;;;;;;38.38;23.48;;;;;;;9.62;100.00;100190.72;4956963;28;20053;-86
2021/10/31 05:07:59;;;;;;;35.05;20.90;;;;;;;9.61;100.00;100203.28;4988764;28;20042;-83
2021/10/31 05:10:27;;;;;;;37.00;21.52;;;;;;;9.59;100.00;100191.06;4986645;28;20049;-85
2021/10/31 05:12:53;;;;;;;37.15;23.83;;;;;;;9.60;100.00;100193.56;4984965;28;20038;-81
2021/10/31 05:15:19;;;;;;;37.50;22.15;;;;;;;9.60;100.00;100187.38;5002276;28;20390;-83
2021/10/31 05:17:49;;;;;;;39.75;22.73;;;;;;;9.58;100.00;100190.22;5000437;28;20042;-83
2021/10/31 05:20:16;;;;;;;36.65;23.00;;;;;;;9.59;100.00;100185.69;5006015;28;20176;-84
2021/10/31 05:22:42;;;;;;;41.78;22.20;;;;;;;9.61;100.00;100189.03;4986177;28;20034;-84
2021/10/31 05:25:09;;;;;;;37.08;21.85;;;;;;;9.59;100.00;100181.16;5003697;28;20517;-82
2021/10/31 05:27:39;;;;;;;41.30;21.88;;;;;;;9.59;100.00;100180.34;4986402;28;20045;-86
2021/10/31 05:30:08;;;;;;;38.35;23.02;;;;;;;9.61;100.00;100180.97;4995738;28;20091;-84
2021/10/31 05:32:37;;;;;;;40.40;23.95;;;;;;;9.60;100.00;100188.19;5002749;28;20038;-84
2021/10/31 05:35:06;;;;;;;41.22;23.60;;;;;;;9.58;100.00;100176.84;4987137;28;20065;-81
2021/10/31 05:37:39;;;;;;;43.47;25.45;;;;;;;9.58;100.00;100184.88;4986989;28;20525;-84
2021/10/31 05:40:11;;;;;;;42.08;24.48;;;;;;;9.58;100.00;100186.69;4990069;28;20038;-87
2021/10/31 05:42:38;;;;;;;38.50;24.00;;;;;;;9.59;100.00;100186.53;5001360;28;20034;-85
2021/10/31 05:45:07;;;;;;;41.05;24.63;;;;;;;9.61;100.00;100172.94;4984875;28;20048;-83
2021/10/31 05:47:35;;;;;;;40.28;25.58;;;;;;;9.60;100.00;100182.00;5001681;28;20122;-81
2021/10/31 05:50:08;;;;;;;42.47;24.02;;;;;;;9.58;100.00;100174.16;5004615;28;20037;-84
2021/10/31 05:52:36;;;;;;;44.22;25.58;;;;;;;9.58;100.00;100163.44;4982732;28;20034;-82
2021/10/31 05:55:06;;;;;;;41.92;26.95;;;;;;;9.60;100.00;100155.22;4998516;28;20049;-84
2021/10/31 05:57:32;;;;;;;41.35;24.92;;;;;;;9.59;100.00;100167.78;4991489;28;20520;-81
2021/10/31 05:59:57;;;;;;;45.25;26.00;;;;;;;9.59;100.00;100170.47;4988395;28;20132;-82
2021/10/31 06:02:24;;;;;;;42.65;26.50;;;;;;;9.60;100.00;100160.56;5005113;28;20050;-81
2021/10/31 06:04:52;;;;;;;44.58;26.35;;;;;;;9.61;100.00;100157.75;4977482;28;20048;-85
2021/10/31 06:07:24;;;;;;;43.55;26.63;;;;;;;9.61;100.00;100160.41;4999164;28;20080;-86
2021/10/31 06:09:50;;;;;;;43.25;26.42;;;;;;;9.61;100.00;100154.19;4974959;28;20030;-86
2021/10/31 06:12:16;;;;;;;43.03;24.92;;;;;;;9.61;100.00;100152.38;4999575;28;20550;-84
2021/10/31 06:14:41;;;;;;;42.88;26.13;;;;;;;9.64;100.00;100161.91;4999327;28;20033;-82
2021/10/31 06:17:08;;;;;;;40.95;28.02;;;;;;;9.66;100.00;100163.38;4957393;28;20098;-84
2021/10/31 06:19:35;;;;;;;38.97;22.15;;;;;;;9.67;100.00;100146.31;4974176;28;20077;-86
2021/10/31 06:22:00;;;;;;;40.85;24.60;;;;;;;9.66;100.00;100152.66;5006176;28;20117;-88
2021/10/31 06:24:27;;;;;;;39.75;25.02;;;;;;;9.67;100.00;100151.69;5005484;28;20117;-85
2021/10/31 06:26:52;;;;;;;35.58;24.25;;;;;;;9.68;100.00;100144.47;4985155;28;20418;-83
2021/10/31 06:29:18;;;;;;;40.97;23.92;;;;;;;9.69;100.00;100146.13;4985220;28;20038;-84
2021/10/31 06:31:45;;;;;;;37.88;24.50;;;;;;;9.68;100.00;100145.31;4988248;28;20060;-84
2021/10/31 06:34:11;;;;;;;37.53;23.80;;;;;;;9.70;100.00;100145.16;4984308;28;20046;-84
2021/10/31 06:36:36;;;;;;;37.80;24.25;;;;;;;9.70;100.00;100145.97;5003883;28;20042;-82
2021/10/31 06:39:02;;;;;;;37.30;24.45;;;;;;;9.69;100.00;100154.16;4974961;28;20119;-83
2021/10/31 06:41:28;;;;;;;36.60;22.92;;;;;;;9.71;100.00;100155.66;5005000;28;20046;-83
2021/10/31 06:43:53;;;;;;;35.83;23.50;;;;;;;9.75;100.00;100152.63;5012147;28;20048;-82
2021/10/31 06:46:19;;;;;;;39.67;22.15;;;;;;;9.74;100.00;100157.16;4991735;28;20066;-83
2021/10/31 06:48:44;;;;;;;35.08;21.85;;;;;;;9.75;100.00;100153.47;4992727;28;20030;-84
2021/10/31 06:51:10;;;;;;;39.25;24.15;;;;;;;9.77;100.00;100145.28;4985137;28;20038;-83
2021/10/31 06:53:36;;;;;;;34.15;22.05;;;;;;;9.77;100.00;100137.22;4988094;28;20057;-86
2021/10/31 06:56:01;;;;;;;39.67;24.48;;;;;;;9.77;100.00;100126.50;5008866;28;20042;-86
2021/10/31 06:58:27;;;;;;;35.80;22.85;;;;;;;9.78;100.00;100130.84;4979404;28;20081;-86
2021/10/31 07:00:53;;;;;;;34.85;23.25;;;;;;;9.77;100.00;100124.66;4997032;28;20042;-86
2021/10/31 07:03:19;;;;;;;34.22;23.08;;;;;;;9.79;100.00;100116.47;5015112;28;20040;-87
2021/10/31 07:05:45;;;;;;;40.58;25.48;;;;;;;9.79;100.00;100121.81;5016895;28;20069;-87
2021/10/31 07:08:11;;;;;;;39.65;22.88;;;;;;;9.79;100.00;100121.81;4998737;28;20041;-88
2021/10/31 07:10:36;;;;;;;39.50;24.42;;;;;;;9.79;100.00;100111.94;4967641;28;20038;-87
2021/10/31 07:13:02;;;;;;;39.65;24.95;;;;;;;9.81;100.00;100119.78;5010196;28;20121;-85
2021/10/31 07:15:27;;;;;;;41.88;25.50;;;;;;;9.80;100.00;100123.47;4994569;28;20053;-89
2021/10/31 07:17:54;;;;;;;40.90;24.45;;;;;;;9.80;100.00;100110.91;5013594;28;20030;-86
2021/10/31 07:20:20;;;;;;;37.40;24.27;;;;;;;9.80;100.00;100110.91;4995874;28;20512;-87
2021/10/31 07:22:45;;;;;;;37.78;22.45;;;;;;;9.80;100.00;100113.59;4993054;28;20120;-88
2021/10/31 07:25:12;;;;;;;39.13;24.45;;;;;;;9.80;100.00;100113.59;4975191;28;20046;-84
2021/10/31 07:27:38;;;;;;;36.65;23.27;;;;;;;9.80;100.00;100116.28;4994294;28;20494;-83
2021/10/31 07:30:04;;;;;;;37.42;23.73;;;;;;;9.83;100.00;100105.19;5010546;28;20052;-85
2021/10/31 07:32:30;;;;;;;39.35;22.88;;;;;;;9.83;100.00;100101.69;4980930;28;20044;-85
2021/10/31 07:34:55;;;;;;;37.83;22.45;;;;;;;9.84;100.00;100092.63;5007299;28;20121;-83
2021/10/31 07:37:22;;;;;;;43.88;24.35;;;;;;;9.84;100.00;100084.59;4988815;28;20100;-85
2021/10/31 07:39:49;;;;;;;38.78;22.50;;;;;;;9.85;100.00;100083.59;4995712;28;20037;-83
2021/10/31 07:42:15;;;;;;;40.83;25.08;;;;;;;9.85;100.00;100086.28;5011861;28;20236;-84
2021/10/31 07:44:42;;;;;;;35.28;22.92;;;;;;;9.85;100.00;100084.44;4990849;28;20062;-84
2021/10/31 07:47:08;;;;;;;37.70;22.58;;;;;;;9.86;100.00;100082.56;4993636;28;20042;-86
2021/10/31 07:49:33;;;;;;;37.10;22.15;;;;;;;9.89;100.00;100085.72;4981582;28;20124;-83
2021/10/31 07:51:58;;;;;;;37.85;23.20;;;;;;;9.91;100.00;100088.25;4961133;28;20042;-84
2021/10/31 07:54:26;;;;;;;38.85;23.38;;;;;;;9.94;100.00;100088.72;4978311;28;20053;-86
2021/10/31 07:56:55;;;;;;;39.63;23.92;;;;;;;9.98;100.00;100086.50;5011403;28;20579;-84
2021/10/31 07:59:20;;;;;;;39.95;22.30;;;;;;;10.02;100.00;100082.47;5011531;28;20582;-86
2021/10/31 08:01:46;;;;;;;36.33;22.35;;;;;;;10.07;100.00;100080.09;4994274;28;20038;-86
2021/10/31 08:04:12;;;;;;;39.42;23.52;;;;;;;10.12;100.00;100068.84;4995986;28;20125;-81
2021/10/31 08:06:38;;;;;;;34.33;21.10;;;;;;;10.14;100.00;100066.81;4976946;28;20104;-85
2021/10/31 08:09:03;;;;;;;34.03;20.85;;;;;;;10.20;100.00;100062.59;5009285;28;20037;-84
2021/10/31 08:11:28;;;;;;;32.40;21.27;;;;;;;10.23;100.00;100064.91;5003853;28;20050;-84
2021/10/31 08:13:58;;;;;;;32.78;20.60;;;;;;;10.25;100.00;100060.22;5000377;28;20046;-81
2021/10/31 08:16:25;;;;;;;35.67;22.17;;;;;;;10.27;100.00;100058.19;4984068;28;20391;-80
2021/10/31 08:18:52;;;;;;;32.17;19.30;;;;;;;10.28;100.00;100065.25;4989264;28;20486;-85
2021/10/31 08:21:18;;;;;;;36.45;23.02;;;;;;;10.31;100.00;100062.19;5001160;28;20049;-83
2021/10/31 08:23:45;;;;;;;29.27;20.05;;;;;;;10.31;100.00;100068.38;4975817;28;20045;-82
2021/10/31 08:26:12;;;;;;;33.20;20.00;;;;;;;10.33;100.00;100070.91;4989863;28;20046;-83
2021/10/31 08:28:40;;;;;;;37.38;21.35;;;;;;;10.37;100.00;100066.84;4985339;28;20042;-85
2021/10/31 08:31:08;;;;;;;29.23;19.88;;;;;;;10.42;100.00;100064.44;5004855;28;20050;-84
2021/10/31 08:33:35;;;;;;;29.50;20.05;;;;;;;10.43;100.00;100065.28;4992376;28;20046;-85
2021/10/31 08:36:06;;;;;;;29.83;19.00;;;;;;;10.47;100.00;100069.25;5008167;28;20088;-81
2021/10/31 08:38:32;;;;;;;27.50;19.50;;;;;;;10.49;100.00;100059.19;5020650;28;20048;-81
2021/10/31 08:40:57;;;;;;;30.27;19.17;;;;;;;10.51;100.00;100062.53;4994745;28;20033;-86
2021/10/31 08:43:23;;;;;;;23.30;17.58;;;;;;;10.55;100.00;100063.81;4988939;28;20197;-87
2021/10/31 08:45:51;;;;;;;26.10;17.17;;;;;;;10.58;100.00;100060.78;5013754;28;20042;-87
2021/10/31 08:48:16;;;;;;;24.73;16.77;;;;;;;10.61;100.00;100050.50;5011139;28;20157;-86
2021/10/31 08:50:43;;;;;;;25.13;17.23;;;;;;;10.66;100.00;100047.28;4992645;28;20041;-85
2021/10/31 08:53:12;;;;;;;23.30;15.75;;;;;;;10.73;100.00;100044.69;4990677;28;20034;-89
2021/10/31 08:55:39;;;;;;;23.15;16.27;;;;;;;10.74;100.00;100041.00;5008250;28;20050;-86
2021/10/31 08:58:06;;;;;;;20.35;15.52;;;;;;;10.77;100.00;100051.38;5003669;28;20065;-86
2021/10/31 09:00:32;;;;;;;21.63;15.43;;;;;;;10.80;100.00;100042.97;4997569;28;20053;-85
2021/10/31 09:02:59;;;;;;;18.23;14.18;;;;;;;10.85;100.00;100032.50;4990892;28;20045;-86
2021/10/31 09:05:24;;;;;;;23.50;14.55;;;;;;;10.89;100.00;100033.78;5007638;28;20052;-89
2021/10/31 09:07:50;;;;;;;19.23;13.27;;;;;;;10.95;100.00;100021.47;5009658;28;20034;-85
2021/10/31 09:10:16;;;;;;;18.13;12.85;;;;;;;11.00;100.00;100013.72;5003348;28;20053;-86
2021/10/31 09:12:43;;;;;;;18.80;13.15;;;;;;;11.01;100.00;100010.81;4989795;28;20046;-85
2021/10/31 09:15:09;;;;;;;16.23;12.40;;;;;;;11.03;100.00;100013.34;5004770;28;20038;-83
2021/10/31 09:17:34;;;;;;;16.95;11.40;;;;;;;11.05;100.00;99990.66;5006831;28;20486;-87
2021/10/31 09:20:01;;;;;;;16.10;11.20;;;;;;;11.13;100.00;99991.56;4993446;28;20054;-86
2021/10/31 09:22:26;;;;;;;14.57;10.70;;;;;;;11.19;100.00;99990.81;5008502;28;20117;-85
2021/10/31 09:24:52;;;;;;;17.17;10.75;;;;;;;11.26;100.00;99979.13;5015885;28;20438;-83
2021/10/31 09:27:19;;;;;;;13.10;10.88;;;;;;;11.36;100.00;99965.41;5004014;28;20042;-84
2021/10/31 09:29:45;;;;;;;15.10;10.60;;;;;;;11.45;100.00;99952.69;5000220;28;20042;-87
2021/10/31 09:32:10;;;;;;;13.52;9.80;;;;;;;11.51;100.00;99968.88;4988656;28;20509;-85
2021/10/31 09:34:36;;;;;;;14.35;8.85;;;;;;;11.58;100.00;99963.56;4991327;28;20249;-85
2021/10/31 09:37:03;;;;;;;11.07;7.72;;;;;;;11.61;100.00;99971.25;4977148;28;20482;-87
2021/10/31 09:39:29;;;;;;;9.77;7.40;;;;;;;11.68;100.00;99963.25;4987237;28;20398;-85
2021/10/31 09:41:54;;;;;;;9.90;7.38;;;;;;;11.76;100.00;99957.75;4991539;28;20038;-83
2021/10/31 09:44:25;;;;;;;9.80;6.10;;;;;;;11.82;100.00;99959.66;5004750;28;20034;-85
2021/10/31 09:46:51;;;;;;;12.00;6.63;;;;;;;11.87;100.00;99951.88;5000725;28;20042;-84
2021/10/31 09:49:17;;;;;;;7.60;5.65;;;;;;;11.94;100.00;99952.78;4970963;28;20037;-88
2021/10/31 09:51:47;;;;;;;7.55;5.90;;;;;;;12.00;100.00;99950.34;4997529;28;20108;-89
2021/10/31 09:54:14;;;;;;;7.70;5.03;;;;;;;12.05;100.00;99961.34;5000013;28;20552;-86
2021/10/31 09:56:40;;;;;;;5.47;4.65;;;;;;;12.11;100.00;99950.66;4971620;28;20050;-84
2021/10/31 09:59:11;;;;;;;8.32;5.25;;;;;;;12.19;100.00;99945.13;4999543;28;20582;-82
2021/10/31 10:04:30;;;;;;;7.25;4.50;;;;;;;12.31;100.00;99923.06;4986710;28;20491;-90
2021/10/31 10:06:59;;;;;;;6.45;4.47;;;;;;;12.39;100.00;99923.75;4999104;28;20116;-84
2021/10/31 10:09:29;;;;;;;7.57;5.15;;;;;;;12.47;100.00;99912.00;4992368;28;20034;-85
2021/10/31 10:11:55;;;;;;;6.40;4.53;;;;;;;12.57;100.00;99925.09;5004480;28;20039;-85
2021/10/31 10:14:31;;;;;;;7.35;4.32;;;;;;;12.65;100.00;99920.38;4972534;28;20064;-83
2021/10/31 10:17:00;;;;;;;6.50;3.90;;;;;;;12.65;99.54;99920.38;4994024;28;20367;-85
2021/10/31 10:19:31;;;;;;;5.03;3.92;;;;;;;12.65;99.16;99912.28;5003529;28;20053;-81
2021/10/31 10:22:09;;;;;;;6.75;4.63;;;;;;;12.68;99.29;99904.88;4987526;28;20061;-84
2021/10/31 10:24:39;;;;;;;7.03;4.28;;;;;;;12.69;98.34;99899.28;4991114;28;20053;-84
2021/10/31 10:27:14;;;;;;;5.13;3.70;;;;;;;12.73;98.33;99897.03;4988569;28;20478;-87
2021/10/31 10:29:42;;;;;;;5.78;3.60;;;;;;;12.78;98.53;99900.78;5003966;28;20038;-87
2021/10/31 10:32:12;;;;;;;6.13;4.15;;;;;;;12.80;98.29;99889.78;5006487;28;20048;-81
2021/10/31 10:34:48;;;;;;;5.68;3.60;;;;;;;12.84;98.67;99894.59;5004305;28;20065;-85
2021/10/31 10:37:19;;;;;;;6.63;3.65;;;;;;;12.88;98.28;99895.00;5002247;28;20045;-85
2021/10/31 10:39:56;;;;;;;6.68;3.53;;;;;;;12.93;97.33;99894.41;4988332;28;20038;-86
2021/10/31 10:42:29;;;;;;;4.68;3.38;;;;;;;12.95;96.32;99889.66;5001882;28;20399;-86
2021/10/31 10:44:57;;;;;;;5.40;3.78;;;;;;;13.03;98.00;99886.78;5005716;28;20038;-86
2021/10/31 10:47:24;;;;;;;5.32;3.75;;;;;;;13.10;97.09;99874.19;4999071;28;20047;-83
2021/10/31 10:49:52;;;;;;;5.53;3.40;;;;;;;13.12;96.46;99873.97;4997232;28;20039;-85
2021/10/31 10:52:24;;;;;;;6.15;4.03;;;;;;;13.14;96.12;99878.09;4991178;28;20111;-84
2021/10/31 10:55:03;;;;;;;4.97;3.50;;;;;;;13.21;96.47;99873.59;4987756;28;20121;-83
2021/10/31 10:57:47;;;;;;;6.35;3.45;;;;;;;13.26;96.07;99871.16;5006220;28;20050;-86
2021/10/31 11:00:15;;;;;;;5.82;2.97;;;;;;;13.29;95.60;99862.66;4987458;28;20038;-86
2021/10/31 11:02:42;;;;;;;5.43;3.10;;;;;;;13.37;95.67;99855.41;4991891;28;20050;-85
2021/10/31 11:05:12;;;;;;;6.97;3.10;;;;;;;13.47;94.96;99858.53;4999775;28;20045;-87
2021/10/31 11:07:42;;;;;;;;;;;;;;;13.58;93.60;99846.28;4990056;28;20042;-84
2021/10/31 11:10:18;;;;;;;5.85;2.88;;;;;;;13.57;94.96;99856.25;4999478;28;19960;-84
2021/10/31 11:12:46;;;;;;;4.30;2.78;;;;;;;13.70;93.57;99844.66;4998870;28;20410;-83
2021/10/31 11:15:17;;;;;;;6.10;2.07;;;;;;;13.77;92.62;99830.09;4977455;28;20037;-87
2021/10/31 11:17:46;;;;;;;3.78;2.38;;;;;;;13.84;92.44;99829.28;4973097;28;20041;-83